sensor_id;sensor_type;location;lat;lon;timestamp;pressure;altitude;pressure_sealevel;temperature;humidity
57038;BME280;59942;49.304;8.256;2023-09-18T00:00:30;99593.63;;;21.41;65.18
57038;BME280;59942;49.304;8.256;2023-09-18T00:02:59;99587.84;;;21.63;63.28
57038;BME280;59942;49.304;8.256;2023-09-18T00:05:30;99596.53;;;21.82;62.57
57038;BME280;59942;49.304;8.256;2023-09-18T00:07:57;99604.28;;;21.83;67.43
57038;BME280;59942;49.304;8.256;2023-09-18T00:10:25;99598.84;;;21.77;63.78
57038;BME280;59942;49.304;8.256;2023-09-18T00:12:52;99598.69;;;21.86;62.18
57038;BME280;59942;49.304;8.256;2023-09-18T00:15:19;99597.28;;;21.66;66.74
57038;BME280;59942;49.304;8.256;2023-09-18T00:17:45;99537.22;;;21.33;63.78
57038;BME280;59942;49.304;8.256;2023-09-18T00:20:12;99592.81;;;21.66;65.92
57038;BME280;59942;49.304;8.256;2023-09-18T00:22:40;99591.19;;;21.65;65.68
57038;BME280;59942;49.304;8.256;2023-09-18T00:25:06;99584.09;;;21.66;66.69
57038;BME280;59942;49.304;8.256;2023-09-18T00:27:33;99554.03;;;21.32;66.70
57038;BME280;59942;49.304;8.256;2023-09-18T00:29:59;99581.06;;;21.34;66.84
57038;BME280;59942;49.304;8.256;2023-09-18T00:32:27;99567.72;;;21.36;64.44
57038;BME280;59942;49.304;8.256;2023-09-18T00:34:54;99571.91;;;21.47;63.69
57038;BME280;59942;49.304;8.256;2023-09-18T00:37:21;99574.41;;;21.48;64.24
57038;BME280;59942;49.304;8.256;2023-09-18T00:39:49;99571.75;;;21.48;67.83
57038;BME280;59942;49.304;8.256;2023-09-18T00:42:16;99532.81;;;21.16;67.77
57038;BME280;59942;49.304;8.256;2023-09-18T00:44:45;99564.91;;;21.38;68.93
57038;BME280;59942;49.304;8.256;2023-09-18T00:47:12;99549.78;;;21.13;67.29
57038;BME280;59942;49.304;8.256;2023-09-18T00:49:41;99554.44;;;21.20;67.33
57038;BME280;59942;49.304;8.256;2023-09-18T00:52:10;99553.50;;;21.29;64.58
57038;BME280;59942;49.304;8.256;2023-09-18T00:54:38;99558.75;;;21.29;66.94
57038;BME280;59942;49.304;8.256;2023-09-18T00:57:08;99572.00;;;21.37;67.18
57038;BME280;59942;49.304;8.256;2023-09-18T00:59:36;99568.19;;;21.31;68.21
57038;BME280;59942;49.304;8.256;2023-09-18T01:02:03;99569.78;;;21.50;66.84
57038;BME280;59942;49.304;8.256;2023-09-18T01:04:30;99570.72;;;21.41;68.93
57038;BME280;59942;49.304;8.256;2023-09-18T01:07:02;99581.72;;;20.92;71.17
57038;BME280;59942;49.304;8.256;2023-09-18T01:09:32;99556.66;;;20.88;67.23
57038;BME280;59942;49.304;8.256;2023-09-18T01:12:01;99563.53;;;20.81;68.52
57038;BME280;59942;49.304;8.256;2023-09-18T01:14:40;99559.22;;;20.98;68.65
57038;BME280;59942;49.304;8.256;2023-09-18T01:17:10;99562.34;;;21.20;64.88
57038;BME280;59942;49.304;8.256;2023-09-18T01:19:45;99511.81;;;20.80;68.58
57038;BME280;59942;49.304;8.256;2023-09-18T01:22:17;99571.53;;;21.15;66.79
57038;BME280;59942;49.304;8.256;2023-09-18T01:24:45;99612.84;;;20.43;73.95
57038;BME280;59942;49.304;8.256;2023-09-18T01:27:17;99624.31;;;20.24;73.56
57038;BME280;59942;49.304;8.256;2023-09-18T01:29:45;99600.59;;;19.96;78.30
57038;BME280;59942;49.304;8.256;2023-09-18T01:32:12;99580.28;;;19.88;78.51
57038;BME280;59942;49.304;8.256;2023-09-18T01:34:48;99581.00;;;20.36;77.09
57038;BME280;59942;49.304;8.256;2023-09-18T01:37:17;99561.84;;;20.62;69.39
57038;BME280;59942;49.304;8.256;2023-09-18T01:39:49;99585.44;;;20.81;72.07
57038;BME280;59942;49.304;8.256;2023-09-18T01:42:17;99579.22;;;20.37;76.37
57038;BME280;59942;49.304;8.256;2023-09-18T01:44:46;99594.16;;;20.82;69.00
57038;BME280;59942;49.304;8.256;2023-09-18T01:47:17;99579.16;;;21.01;67.23
57038;BME280;59942;49.304;8.256;2023-09-18T01:49:44;99509.31;;;20.78;69.29
57038;BME280;59942;49.304;8.256;2023-09-18T01:52:12;99584.44;;;21.01;68.92
57038;BME280;59942;49.304;8.256;2023-09-18T01:54:39;99602.03;;;21.18;73.06
57038;BME280;59942;49.304;8.256;2023-09-18T01:57:06;99555.03;;;20.87;70.44
57038;BME280;59942;49.304;8.256;2023-09-18T01:59:35;99583.97;;;21.05;67.63
57038;BME280;59942;49.304;8.256;2023-09-18T02:02:04;99582.16;;;21.24;66.23
57038;BME280;59942;49.304;8.256;2023-09-18T02:04:34;99575.50;;;20.93;75.13
57038;BME280;59942;49.304;8.256;2023-09-18T02:07:21;99588.03;;;20.63;78.32
57038;BME280;59942;49.304;8.256;2023-09-18T02:09:48;99594.81;;;20.66;74.30
57038;BME280;59942;49.304;8.256;2023-09-18T02:12:14;99547.25;;;19.66;81.96
57038;BME280;59942;49.304;8.256;2023-09-18T02:14:44;99601.84;;;20.29;76.44
57038;BME280;59942;49.304;8.256;2023-09-18T02:17:11;99600.94;;;19.73;84.08
57038;BME280;59942;49.304;8.256;2023-09-18T02:19:38;99614.56;;;20.06;80.52
57038;BME280;59942;49.304;8.256;2023-09-18T02:22:05;99623.16;;;19.99;79.53
57038;BME280;59942;49.304;8.256;2023-09-18T02:24:31;99616.63;;;20.03;75.16
57038;BME280;59942;49.304;8.256;2023-09-18T02:26:58;99626.88;;;20.34;74.05
57038;BME280;59942;49.304;8.256;2023-09-18T02:29:24;99626.91;;;20.52;75.30
57038;BME280;59942;49.304;8.256;2023-09-18T02:31:51;99636.72;;;20.32;78.15
57038;BME280;59942;49.304;8.256;2023-09-18T02:34:17;99618.50;;;20.20;77.72
57038;BME280;59942;49.304;8.256;2023-09-18T02:36:45;99600.13;;;20.38;73.11
57038;BME280;59942;49.304;8.256;2023-09-18T02:39:12;99588.53;;;20.49;73.79
57038;BME280;59942;49.304;8.256;2023-09-18T02:41:39;99593.84;;;20.39;77.27
57038;BME280;59942;49.304;8.256;2023-09-18T02:44:05;99578.88;;;19.94;82.78
57038;BME280;59942;49.304;8.256;2023-09-18T02:46:32;99593.13;;;19.91;84.13
57038;BME280;59942;49.304;8.256;2023-09-18T02:48:59;99581.75;;;20.01;83.92
57038;BME280;59942;49.304;8.256;2023-09-18T02:51:25;99549.50;;;19.51;85.13
57038;BME280;59942;49.304;8.256;2023-09-18T02:53:52;99581.16;;;19.79;83.72
57038;BME280;59942;49.304;8.256;2023-09-18T02:56:18;99576.13;;;19.86;81.97
57038;BME280;59942;49.304;8.256;2023-09-18T02:58:45;99582.47;;;19.93;85.94
57038;BME280;59942;49.304;8.256;2023-09-18T03:01:11;99557.34;;;20.08;84.44
57038;BME280;59942;49.304;8.256;2023-09-18T03:03:38;99563.97;;;19.75;86.43
57038;BME280;59942;49.304;8.256;2023-09-18T03:06:05;99538.53;;;19.66;86.32
57038;BME280;59942;49.304;8.256;2023-09-18T03:08:33;99564.19;;;19.91;83.15
57038;BME280;59942;49.304;8.256;2023-09-18T03:10:59;99553.53;;;19.93;82.15
57038;BME280;59942;49.304;8.256;2023-09-18T03:13:27;99571.28;;;19.91;83.88
57038;BME280;59942;49.304;8.256;2023-09-18T03:15:55;99555.69;;;19.80;86.13
57038;BME280;59942;49.304;8.256;2023-09-18T03:18:22;99569.31;;;19.93;84.86
57038;BME280;59942;49.304;8.256;2023-09-18T03:20:49;99562.69;;;20.17;77.32
57038;BME280;59942;49.304;8.256;2023-09-18T03:23:16;99595.00;;;20.09;84.52
57038;BME280;59942;49.304;8.256;2023-09-18T03:25:43;99590.03;;;20.06;83.33
57038;BME280;59942;49.304;8.256;2023-09-18T03:28:17;99595.09;;;20.17;82.32
57038;BME280;59942;49.304;8.256;2023-09-18T03:30:43;99596.75;;;20.18;82.57
57038;BME280;59942;49.304;8.256;2023-09-18T03:33:10;99610.59;;;20.20;82.30
57038;BME280;59942;49.304;8.256;2023-09-18T03:35:47;99617.22;;;20.24;81.15
57038;BME280;59942;49.304;8.256;2023-09-18T03:38:15;99638.63;;;20.39;80.99
57038;BME280;59942;49.304;8.256;2023-09-18T03:40:42;99647.69;;;20.27;82.66
57038;BME280;59942;49.304;8.256;2023-09-18T03:43:10;99622.56;;;20.05;82.13
57038;BME280;59942;49.304;8.256;2023-09-18T03:45:39;99637.94;;;20.09;83.35
57038;BME280;59942;49.304;8.256;2023-09-18T03:48:09;99653.63;;;20.01;84.72
57038;BME280;59942;49.304;8.256;2023-09-18T03:50:36;99641.84;;;20.05;84.91
57038;BME280;59942;49.304;8.256;2023-09-18T03:53:03;99629.41;;;19.98;85.47
57038;BME280;59942;49.304;8.256;2023-09-18T03:55:30;99625.16;;;19.87;86.21
57038;BME280;59942;49.304;8.256;2023-09-18T03:57:57;99619.63;;;19.80;87.89
57038;BME280;59942;49.304;8.256;2023-09-18T04:00:23;99600.25;;;19.71;89.21
57038;BME280;59942;49.304;8.256;2023-09-18T04:02:50;99617.41;;;19.75;88.19
57038;BME280;59942;49.304;8.256;2023-09-18T04:05:17;99626.41;;;19.73;89.82
57038;BME280;59942;49.304;8.256;2023-09-18T04:07:45;99608.56;;;19.67;89.54
57038;BME280;59942;49.304;8.256;2023-09-18T04:10:14;99586.84;;;19.65;89.35
57038;BME280;59942;49.304;8.256;2023-09-18T04:12:50;99581.31;;;19.58;90.43
57038;BME280;59942;49.304;8.256;2023-09-18T04:15:18;99565.53;;;19.68;88.82
57038;BME280;59942;49.304;8.256;2023-09-18T04:17:45;99546.06;;;19.51;92.33
57038;BME280;59942;49.304;8.256;2023-09-18T04:20:13;99530.97;;;19.53;92.15
57038;BME280;59942;49.304;8.256;2023-09-18T04:22:44;99504.91;;;19.32;92.41
57038;BME280;59942;49.304;8.256;2023-09-18T04:25:12;99527.13;;;19.47;92.68
57038;BME280;59942;49.304;8.256;2023-09-18T04:27:39;99534.72;;;19.50;90.40
57038;BME280;59942;49.304;8.256;2023-09-18T04:30:07;99529.06;;;19.45;92.32
57038;BME280;59942;49.304;8.256;2023-09-18T04:32:40;99531.56;;;19.37;92.08
57038;BME280;59942;49.304;8.256;2023-09-18T04:35:07;99474.56;;;18.90;93.51
57038;BME280;59942;49.304;8.256;2023-09-18T04:37:36;99532.84;;;19.33;93.08
57038;BME280;59942;49.304;8.256;2023-09-18T04:40:05;99524.41;;;19.29;93.93
57038;BME280;59942;49.304;8.256;2023-09-18T04:42:36;99503.03;;;19.04;95.66
57038;BME280;59942;49.304;8.256;2023-09-18T04:45:03;99528.69;;;19.30;94.24
57038;BME280;59942;49.304;8.256;2023-09-18T04:47:30;99523.88;;;19.16;95.70
57038;BME280;59942;49.304;8.256;2023-09-18T04:49:57;99527.00;;;19.39;92.82
57038;BME280;59942;49.304;8.256;2023-09-18T04:52:23;99543.66;;;19.20;95.21
57038;BME280;59942;49.304;8.256;2023-09-18T04:54:50;99550.84;;;19.27;93.70
57038;BME280;59942;49.304;8.256;2023-09-18T04:57:16;99557.53;;;19.02;96.84
57038;BME280;59942;49.304;8.256;2023-09-18T04:59:45;99564.28;;;19.05;96.46
57038;BME280;59942;49.304;8.256;2023-09-18T05:02:11;99559.44;;;19.10;95.79
57038;BME280;59942;49.304;8.256;2023-09-18T05:04:38;99562.88;;;19.20;95.02
57038;BME280;59942;49.304;8.256;2023-09-18T05:07:05;99492.25;;;18.68;96.31
57038;BME280;59942;49.304;8.256;2023-09-18T05:09:31;99602.84;;;19.04;97.03
57038;BME280;59942;49.304;8.256;2023-09-18T05:11:58;99594.03;;;19.05;95.14
57038;BME280;59942;49.304;8.256;2023-09-18T05:14:25;99580.84;;;19.15;94.46
57038;BME280;59942;49.304;8.256;2023-09-18T05:16:52;99585.16;;;19.06;96.39
57038;BME280;59942;49.304;8.256;2023-09-18T05:19:19;99597.19;;;18.99;96.89
57038;BME280;59942;49.304;8.256;2023-09-18T05:21:45;99608.69;;;18.98;97.81
57038;BME280;59942;49.304;8.256;2023-09-18T05:24:12;99622.06;;;18.85;98.72
57038;BME280;59942;49.304;8.256;2023-09-18T05:26:39;99611.00;;;18.91;98.64
57038;BME280;59942;49.304;8.256;2023-09-18T05:29:06;99612.13;;;18.89;99.34
57038;BME280;59942;49.304;8.256;2023-09-18T05:31:32;99622.78;;;19.07;94.97
57038;BME280;59942;49.304;8.256;2023-09-18T05:33:59;99600.50;;;19.01;97.61
57038;BME280;59942;49.304;8.256;2023-09-18T05:36:25;99579.75;;;18.79;100.00
57038;BME280;59942;49.304;8.256;2023-09-18T05:38:55;99582.81;;;19.03;98.57
57038;BME280;59942;49.304;8.256;2023-09-18T05:41:22;99547.84;;;18.93;96.87
57038;BME280;59942;49.304;8.256;2023-09-18T05:43:52;99556.97;;;19.08;96.11
57038;BME280;59942;49.304;8.256;2023-09-18T05:46:20;99564.41;;;19.13;95.38
57038;BME280;59942;49.304;8.256;2023-09-18T05:48:46;99570.47;;;19.14;95.78
57038;BME280;59942;49.304;8.256;2023-09-18T05:51:13;99575.72;;;19.23;95.26
57038;BME280;59942;49.304;8.256;2023-09-18T05:53:39;99581.78;;;19.34;94.21
57038;BME280;59942;49.304;8.256;2023-09-18T05:56:06;99584.97;;;19.37;93.83
57038;BME280;59942;49.304;8.256;2023-09-18T05:58:32;99585.41;;;19.33;94.99
57038;BME280;59942;49.304;8.256;2023-09-18T06:00:59;99559.81;;;19.25;94.63
57038;BME280;59942;49.304;8.256;2023-09-18T06:03:27;99562.31;;;19.26;94.51
57038;BME280;59942;49.304;8.256;2023-09-18T06:05:57;99567.69;;;19.25;95.36
57038;BME280;59942;49.304;8.256;2023-09-18T06:08:23;99584.28;;;19.35;95.29
57038;BME280;59942;49.304;8.256;2023-09-18T06:10:52;99583.72;;;19.41;94.45
57038;BME280;59942;49.304;8.256;2023-09-18T06:13:20;99601.13;;;19.42;93.78
57038;BME280;59942;49.304;8.256;2023-09-18T06:15:47;99604.75;;;19.41;93.60
57038;BME280;59942;49.304;8.256;2023-09-18T06:18:14;99613.31;;;19.43;93.40
57038;BME280;59942;49.304;8.256;2023-09-18T06:20:41;99615.28;;;19.41;93.54
57038;BME280;59942;49.304;8.256;2023-09-18T06:23:07;99614.56;;;19.49;93.22
57038;BME280;59942;49.304;8.256;2023-09-18T06:25:34;99616.50;;;19.47;92.36
57038;BME280;59942;49.304;8.256;2023-09-18T06:28:00;99625.50;;;19.54;91.88
57038;BME280;59942;49.304;8.256;2023-09-18T06:30:30;99629.31;;;19.60;91.33
57038;BME280;59942;49.304;8.256;2023-09-18T06:33:00;99622.72;;;19.56;90.40
57038;BME280;59942;49.304;8.256;2023-09-18T06:35:27;99638.59;;;19.64;89.84
57038;BME280;59942;49.304;8.256;2023-09-18T06:37:54;99647.75;;;19.60;90.70
57038;BME280;59942;49.304;8.256;2023-09-18T06:40:24;99658.81;;;19.64;89.83
57038;BME280;59942;49.304;8.256;2023-09-18T06:42:51;99664.50;;;19.59;90.29
57038;BME280;59942;49.304;8.256;2023-09-18T06:45:24;99622.06;;;19.34;89.41
57038;BME280;59942;49.304;8.256;2023-09-18T06:47:50;99663.41;;;19.61;89.27
57038;BME280;59942;49.304;8.256;2023-09-18T06:50:17;99666.84;;;19.72;88.36
57038;BME280;59942;49.304;8.256;2023-09-18T06:52:46;99644.00;;;19.63;88.56
57038;BME280;59942;49.304;8.256;2023-09-18T06:55:13;99660.88;;;19.70;88.47
57038;BME280;59942;49.304;8.256;2023-09-18T06:57:40;99677.38;;;19.62;88.90
57038;BME280;59942;49.304;8.256;2023-09-18T07:00:08;99680.81;;;19.63;89.30
57038;BME280;59942;49.304;8.256;2023-09-18T07:02:34;99693.28;;;19.60;89.50
57038;BME280;59942;49.304;8.256;2023-09-18T07:05:01;99683.72;;;19.59;89.66
57038;BME280;59942;49.304;8.256;2023-09-18T07:07:28;99692.84;;;19.65;90.13
57038;BME280;59942;49.304;8.256;2023-09-18T07:09:54;99689.28;;;19.66;89.46
57038;BME280;59942;49.304;8.256;2023-09-18T07:12:24;99690.91;;;19.67;89.75
57038;BME280;59942;49.304;8.256;2023-09-18T07:14:50;99692.84;;;19.65;90.30
57038;BME280;59942;49.304;8.256;2023-09-18T07:17:17;99700.47;;;19.58;90.68
57038;BME280;59942;49.304;8.256;2023-09-18T07:19:43;99691.47;;;19.61;90.58
57038;BME280;59942;49.304;8.256;2023-09-18T07:22:10;99702.00;;;19.61;89.97
57038;BME280;59942;49.304;8.256;2023-09-18T07:24:36;99695.63;;;19.64;90.38
57038;BME280;59942;49.304;8.256;2023-09-18T07:27:07;99703.94;;;19.59;89.92
57038;BME280;59942;49.304;8.256;2023-09-18T07:29:33;99702.69;;;19.53;90.62
57038;BME280;59942;49.304;8.256;2023-09-18T07:32:01;99694.25;;;19.50;90.51
57038;BME280;59942;49.304;8.256;2023-09-18T07:34:28;99715.44;;;19.58;90.58
57038;BME280;59942;49.304;8.256;2023-09-18T07:36:54;99717.09;;;19.69;90.29
57038;BME280;59942;49.304;8.256;2023-09-18T07:39:22;99719.28;;;19.64;90.47
57038;BME280;59942;49.304;8.256;2023-09-18T07:41:49;99730.09;;;19.60;90.67
57038;BME280;59942;49.304;8.256;2023-09-18T07:44:19;99722.78;;;19.54;90.57
57038;BME280;59942;49.304;8.256;2023-09-18T07:46:47;99738.94;;;19.59;90.89
57038;BME280;59942;49.304;8.256;2023-09-18T07:49:14;99730.38;;;19.57;91.01
57038;BME280;59942;49.304;8.256;2023-09-18T07:51:40;99736.19;;;19.61;90.75
57038;BME280;59942;49.304;8.256;2023-09-18T07:54:07;99717.09;;;19.49;91.19
57038;BME280;59942;49.304;8.256;2023-09-18T07:56:34;99739.38;;;19.55;91.13
57038;BME280;59942;49.304;8.256;2023-09-18T07:59:02;99722.06;;;19.52;90.69
57038;BME280;59942;49.304;8.256;2023-09-18T08:01:29;99742.41;;;19.60;90.67
57038;BME280;59942;49.304;8.256;2023-09-18T08:03:58;99736.88;;;19.53;91.00
57038;BME280;59942;49.304;8.256;2023-09-18T08:06:26;99740.34;;;19.54;90.49
57038;BME280;59942;49.304;8.256;2023-09-18T08:08:52;99735.66;;;19.57;90.59
57038;BME280;59942;49.304;8.256;2023-09-18T08:11:19;99731.63;;;19.63;90.59
57038;BME280;59942;49.304;8.256;2023-09-18T08:13:46;99735.22;;;19.62;90.42
57038;BME280;59942;49.304;8.256;2023-09-18T08:16:12;99739.78;;;19.60;90.16
57038;BME280;59942;49.304;8.256;2023-09-18T08:18:40;99712.38;;;19.63;89.41
57038;BME280;59942;49.304;8.256;2023-09-18T08:21:07;99735.06;;;19.64;89.94
57038;BME280;59942;49.304;8.256;2023-09-18T08:23:35;99723.03;;;19.61;89.55
57038;BME280;59942;49.304;8.256;2023-09-18T08:26:02;99720.25;;;19.63;89.73
57038;BME280;59942;49.304;8.256;2023-09-18T08:28:30;99705.72;;;19.58;89.69
57038;BME280;59942;49.304;8.256;2023-09-18T08:30:56;99703.25;;;19.57;89.82
57038;BME280;59942;49.304;8.256;2023-09-18T08:33:25;99660.63;;;19.53;89.78
57038;BME280;59942;49.304;8.256;2023-09-18T08:35:52;99683.00;;;19.67;89.00
57038;BME280;59942;49.304;8.256;2023-09-18T08:38:18;99678.19;;;19.63;88.88
57038;BME280;59942;49.304;8.256;2023-09-18T08:40:45;99686.50;;;19.68;89.24
57038;BME280;59942;49.304;8.256;2023-09-18T08:43:14;99690.38;;;19.73;89.19
57038;BME280;59942;49.304;8.256;2023-09-18T08:45:55;99677.34;;;19.72;88.80
57038;BME280;59942;49.304;8.256;2023-09-18T08:48:28;99708.22;;;19.80;88.92
57038;BME280;59942;49.304;8.256;2023-09-18T08:51:05;99696.72;;;19.90;88.71
57038;BME280;59942;49.304;8.256;2023-09-18T08:53:34;99708.06;;;19.91;88.79
57038;BME280;59942;49.304;8.256;2023-09-18T08:56:02;99660.47;;;19.65;88.13
57038;BME280;59942;49.304;8.256;2023-09-18T08:58:35;99683.31;;;19.84;88.81
57038;BME280;59942;49.304;8.256;2023-09-18T09:01:03;99689.50;;;19.92;88.37
57038;BME280;59942;49.304;8.256;2023-09-18T09:03:32;99688.69;;;19.92;88.43
57038;BME280;59942;49.304;8.256;2023-09-18T09:06:01;99697.69;;;19.99;88.11
57038;BME280;59942;49.304;8.256;2023-09-18T09:08:45;99703.34;;;19.94;88.07
57038;BME280;59942;49.304;8.256;2023-09-18T09:11:12;99734.38;;;20.01;88.08
57038;BME280;59942;49.304;8.256;2023-09-18T09:13:39;99725.13;;;19.87;88.00
57038;BME280;59942;49.304;8.256;2023-09-18T09:16:12;99739.63;;;20.01;87.98
57038;BME280;59942;49.304;8.256;2023-09-18T09:18:49;99753.03;;;20.07;87.43
57038;BME280;59942;49.304;8.256;2023-09-18T09:21:18;99759.25;;;20.16;87.19
57038;BME280;59942;49.304;8.256;2023-09-18T09:23:47;99702.53;;;19.74;86.92
57038;BME280;59942;49.304;8.256;2023-09-18T09:26:20;99743.44;;;20.26;86.22
57038;BME280;59942;49.304;8.256;2023-09-18T09:28:47;99748.84;;;20.24;86.30
57038;BME280;59942;49.304;8.256;2023-09-18T09:31:24;99757.09;;;20.39;85.80
57038;BME280;59942;49.304;8.256;2023-09-18T09:33:54;99754.53;;;20.29;85.56
57038;BME280;59942;49.304;8.256;2023-09-18T09:36:21;99753.28;;;20.24;85.69
57038;BME280;59942;49.304;8.256;2023-09-18T09:38:48;99754.38;;;20.31;85.57
57038;BME280;59942;49.304;8.256;2023-09-18T09:41:21;99750.75;;;20.32;86.37
57038;BME280;59942;49.304;8.256;2023-09-18T09:43:47;99755.16;;;20.41;84.95
57038;BME280;59942;49.304;8.256;2023-09-18T09:46:17;99737.50;;;20.24;85.32
57038;BME280;59942;49.304;8.256;2023-09-18T09:49:03;99737.78;;;20.21;86.12
57038;BME280;59942;49.304;8.256;2023-09-18T09:51:32;99735.75;;;20.42;85.60
57038;BME280;59942;49.304;8.256;2023-09-18T09:53:59;99722.97;;;20.47;84.69
57038;BME280;59942;49.304;8.256;2023-09-18T09:56:46;99724.06;;;20.55;84.60
57038;BME280;59942;49.304;8.256;2023-09-18T09:59:15;99726.44;;;20.48;83.97
57038;BME280;59942;49.304;8.256;2023-09-18T10:01:43;99727.09;;;20.60;83.95
57038;BME280;59942;49.304;8.256;2023-09-18T10:04:17;99721.31;;;20.46;83.92
57038;BME280;59942;49.304;8.256;2023-09-18T10:06:47;99728.88;;;20.59;83.69
57038;BME280;59942;49.304;8.256;2023-09-18T10:09:19;99723.16;;;20.74;83.23
57038;BME280;59942;49.304;8.256;2023-09-18T10:11:49;99730.59;;;20.78;83.38
57038;BME280;59942;49.304;8.256;2023-09-18T10:14:31;99741.06;;;20.70;82.83
57038;BME280;59942;49.304;8.256;2023-09-18T10:17:18;99731.59;;;20.77;82.34
57038;BME280;59942;49.304;8.256;2023-09-18T10:19:54;99715.94;;;20.76;82.22
57038;BME280;59942;49.304;8.256;2023-09-18T10:22:56;99736.69;;;20.89;81.85
57038;BME280;59942;49.304;8.256;2023-09-18T10:25:28;99628.50;;;20.44;81.52
57038;BME280;59942;49.304;8.256;2023-09-18T10:27:58;99725.94;;;21.18;81.52
57038;BME280;59942;49.304;8.256;2023-09-18T10:30:29;99719.91;;;21.26;80.84
57038;BME280;59942;49.304;8.256;2023-09-18T10:32:59;99737.53;;;21.43;79.56
57038;BME280;59942;49.304;8.256;2023-09-18T10:35:27;99728.41;;;21.74;78.70
57038;BME280;59942;49.304;8.256;2023-09-18T10:37:56;99723.59;;;21.69;77.78
57038;BME280;59942;49.304;8.256;2023-09-18T10:40:24;99715.06;;;21.75;78.03
57038;BME280;59942;49.304;8.256;2023-09-18T10:42:54;99714.13;;;21.84;78.70
57038;BME280;59942;49.304;8.256;2023-09-18T10:45:23;99704.72;;;21.82;76.86
57038;BME280;59942;49.304;8.256;2023-09-18T10:47:50;99709.22;;;21.90;76.96
57038;BME280;59942;49.304;8.256;2023-09-18T10:50:24;99720.00;;;21.96;76.99
57038;BME280;59942;49.304;8.256;2023-09-18T10:52:51;99730.75;;;22.03;76.40
57038;BME280;59942;49.304;8.256;2023-09-18T10:55:18;99734.13;;;21.87;75.49
57038;BME280;59942;49.304;8.256;2023-09-18T10:57:55;99720.53;;;22.00;75.97
57038;BME280;59942;49.304;8.256;2023-09-18T11:00:25;99720.22;;;22.11;75.61
57038;BME280;59942;49.304;8.256;2023-09-18T11:02:52;99722.00;;;22.02;74.67
57038;BME280;59942;49.304;8.256;2023-09-18T11:05:48;99715.97;;;22.10;74.11
57038;BME280;59942;49.304;8.256;2023-09-18T11:08:29;99681.22;;;21.97;74.27
57038;BME280;59942;49.304;8.256;2023-09-18T11:11:01;99711.06;;;22.24;71.79
57038;BME280;59942;49.304;8.256;2023-09-18T11:13:34;99726.31;;;22.03;73.21
57038;BME280;59942;49.304;8.256;2023-09-18T11:16:14;99696.06;;;22.59;72.56
57038;BME280;59942;49.304;8.256;2023-09-18T11:18:41;99715.56;;;22.58;72.24
57038;BME280;59942;49.304;8.256;2023-09-18T11:21:09;99705.38;;;22.87;71.81
57038;BME280;59942;49.304;8.256;2023-09-18T11:23:38;99695.50;;;22.89;72.81
57038;BME280;59942;49.304;8.256;2023-09-18T11:26:10;99708.56;;;22.91;69.74
57038;BME280;59942;49.304;8.256;2023-09-18T11:28:37;99664.22;;;22.68;71.17
57038;BME280;59942;49.304;8.256;2023-09-18T11:31:05;99718.97;;;23.01;70.59
57038;BME280;59942;49.304;8.256;2023-09-18T11:33:42;99704.81;;;23.35;69.22
57038;BME280;59942;49.304;8.256;2023-09-18T11:38:54;99713.84;;;24.15;67.16
57038;BME280;59942;49.304;8.256;2023-09-18T11:41:35;99730.78;;;23.64;68.51
57038;BME280;59942;49.304;8.256;2023-09-18T11:46:45;99730.94;;;24.04;67.39
57038;BME280;59942;49.304;8.256;2023-09-18T11:49:12;99736.72;;;24.07;66.29
57038;BME280;59942;49.304;8.256;2023-09-18T11:51:40;99744.84;;;23.73;66.32
57038;BME280;59942;49.304;8.256;2023-09-18T11:54:07;99703.13;;;23.83;66.07
57038;BME280;59942;49.304;8.256;2023-09-18T11:56:35;99743.31;;;24.12;65.72
57038;BME280;59942;49.304;8.256;2023-09-18T11:59:02;99735.22;;;24.13;65.13
57038;BME280;59942;49.304;8.256;2023-09-18T12:01:32;99718.72;;;23.86;67.42
57038;BME280;59942;49.304;8.256;2023-09-18T12:04:03;99671.44;;;23.17;66.73
57038;BME280;59942;49.304;8.256;2023-09-18T12:06:39;99631.06;;;23.07;67.44
57038;BME280;59942;49.304;8.256;2023-09-18T12:09:07;99724.00;;;23.37;66.54
57038;BME280;59942;49.304;8.256;2023-09-18T12:11:34;99725.00;;;23.52;67.08
57038;BME280;59942;49.304;8.256;2023-09-18T12:14:04;99731.63;;;23.56;66.95
57038;BME280;59942;49.304;8.256;2023-09-18T12:16:37;99689.94;;;23.17;66.29
57038;BME280;59942;49.304;8.256;2023-09-18T12:19:05;99718.06;;;23.68;65.72
57038;BME280;59942;49.304;8.256;2023-09-18T12:21:40;99722.47;;;24.08;63.88
57038;BME280;59942;49.304;8.256;2023-09-18T12:24:13;99724.31;;;24.00;65.27
57038;BME280;59942;49.304;8.256;2023-09-18T12:26:40;99727.97;;;23.49;66.06
57038;BME280;59942;49.304;8.256;2023-09-18T12:29:07;99735.25;;;23.47;65.81
57038;BME280;59942;49.304;8.256;2023-09-18T12:31:35;99736.72;;;23.33;66.75
57038;BME280;59942;49.304;8.256;2023-09-18T12:34:01;99723.00;;;23.63;66.59
57038;BME280;59942;49.304;8.256;2023-09-18T12:36:28;99726.66;;;23.45;66.81
57038;BME280;59942;49.304;8.256;2023-09-18T12:38:57;99717.88;;;23.53;66.35
57038;BME280;59942;49.304;8.256;2023-09-18T12:41:27;99711.75;;;23.19;65.82
57038;BME280;59942;49.304;8.256;2023-09-18T12:43:57;99702.34;;;23.25;66.70
57038;BME280;59942;49.304;8.256;2023-09-18T12:46:24;99730.09;;;23.46;66.13
57038;BME280;59942;49.304;8.256;2023-09-18T12:48:50;99728.16;;;23.48;65.29
57038;BME280;59942;49.304;8.256;2023-09-18T12:51:18;99723.69;;;23.40;66.35
57038;BME280;59942;49.304;8.256;2023-09-18T12:53:59;99717.88;;;23.69;65.92
57038;BME280;59942;49.304;8.256;2023-09-18T12:56:26;99694.56;;;23.65;65.43
57038;BME280;59942;49.304;8.256;2023-09-18T12:58:57;99716.22;;;23.68;65.22
57038;BME280;59942;49.304;8.256;2023-09-18T13:01:27;99720.34;;;23.63;64.94
57038;BME280;59942;49.304;8.256;2023-09-18T13:03:54;99717.88;;;23.69;64.89
57038;BME280;59942;49.304;8.256;2023-09-18T13:06:27;99717.22;;;23.75;66.04
57038;BME280;59942;49.304;8.256;2023-09-18T13:08:53;99709.59;;;23.89;64.26
57038;BME280;59942;49.304;8.256;2023-09-18T13:11:20;99710.28;;;23.66;64.78
57038;BME280;59942;49.304;8.256;2023-09-18T13:13:57;99720.53;;;23.61;65.98